createdAt,value
2022-09-10T00:01:40.699Z,99377.22
2022-09-10T00:04:12.860Z,99371.09
2022-09-10T00:06:42.390Z,99386.88
2022-09-10T00:09:12.096Z,99382.28
2022-09-10T00:11:42.199Z,99386.84
2022-09-10T00:14:17.555Z,99393.75
2022-09-10T00:16:46.538Z,99392.47
2022-09-10T00:19:16.047Z,99391.44
2022-09-10T00:21:45.664Z,99392.94
2022-09-10T00:24:14.217Z,99392.47
2022-09-10T00:26:42.981Z,99394.00
2022-09-10T00:29:13.618Z,99399.09
2022-09-10T00:31:42.233Z,99408.50
2022-09-10T00:34:13.427Z,99405.19
2022-09-10T00:36:44.997Z,99409.53
2022-09-10T00:39:16.695Z,99407.72
2022-09-10T00:41:47.870Z,99415.63
2022-09-10T00:44:41.144Z,99420.19
2022-09-10T00:47:21.459Z,99418.16
2022-09-10T00:50:14.669Z,99427.59
2022-09-10T00:52:45.071Z,99437.00
2022-09-10T00:55:13.929Z,99438.53
2022-09-10T00:57:43.946Z,99439.53
2022-09-10T01:00:14.679Z,99445.69
2022-09-10T01:02:43.964Z,99449.50
2022-09-10T01:05:13.383Z,99450.53
2022-09-10T01:07:42.178Z,99448.72
2022-09-10T01:10:16.181Z,99451.78
2022-09-10T01:13:04.986Z,99462.72
2022-09-10T01:16:11.737Z,99468.31
2022-09-10T01:18:40.629Z,99464.22
2022-09-10T01:21:12.163Z,99464.44
2022-09-10T01:24:18.510Z,99450.41
2022-09-10T01:27:22.249Z,99449.34
2022-09-10T01:30:00.857Z,99449.31
2022-09-10T01:32:48.305Z,99454.63
2022-09-10T01:35:29.738Z,99458.44
2022-09-10T01:38:05.770Z,99465.06
2022-09-10T01:40:35.394Z,99470.94
2022-09-10T01:43:07.370Z,99472.69
2022-09-10T01:46:01.381Z,99469.38
2022-09-10T01:49:24.187Z,99475.50
2022-09-10T01:52:11.187Z,99470.88
2022-09-10T01:54:42.289Z,99481.06
2022-09-10T01:57:42.743Z,99472.88
2022-09-10T02:00:18.495Z,99484.59
2022-09-10T02:02:53.867Z,99485.88
2022-09-10T02:05:25.225Z,99483.53
2022-09-10T02:08:11.268Z,99476.09
2022-09-10T02:11:12.878Z,99471.72
2022-09-10T02:13:45.710Z,99480.13
2022-09-10T02:16:35.862Z,99486.97
2022-09-10T02:19:05.553Z,99480.25
2022-09-10T02:21:34.820Z,99481.72
2022-09-10T02:24:06.990Z,99474.28
2022-09-10T02:26:39.230Z,99477.56
2022-09-10T02:29:08.640Z,99473.47
2022-09-10T02:31:37.764Z,99472.19
2022-09-10T02:34:06.485Z,99472.41
2022-09-10T02:36:36.900Z,99466.78
2022-09-10T02:39:06.725Z,99466.50
2022-09-10T02:41:36.209Z,99473.88
2022-09-10T02:44:05.848Z,99471.28
2022-09-10T02:46:34.772Z,99474.34
2022-09-10T02:49:04.188Z,99479.16
2022-09-10T02:51:32.724Z,99475.81
2022-09-10T02:54:01.230Z,99468.16
2022-09-10T02:56:29.856Z,99472.75
2022-09-10T02:58:58.614Z,99466.56
2022-09-10T03:01:27.149Z,99477.31
2022-09-10T03:03:57.753Z,99477.78
2022-09-10T03:06:27.848Z,99469.03
2022-09-10T03:08:56.844Z,99465.91
2022-09-10T03:11:26.370Z,99471.47
2022-09-10T03:13:55.621Z,99467.59
2022-09-10T03:16:25.275Z,99471.66
2022-09-10T03:18:53.876Z,99474.94
2022-09-10T03:21:26.137Z,99467.47
2022-09-10T03:23:57.190Z,99468.47
2022-09-10T03:26:26.687Z,99468.69
2022-09-10T03:28:55.507Z,99468.91
2022-09-10T03:31:24.115Z,99469.91
2022-09-10T03:33:52.869Z,99467.31
2022-09-10T03:36:23.744Z,99455.28
2022-09-10T03:38:52.332Z,99455.53
2022-09-10T03:41:20.908Z,99461.16
2022-09-10T03:43:50.643Z,99460.09
2022-09-10T03:46:19.187Z,99461.09
2022-09-10T03:48:50.979Z,99459.81
2022-09-10T03:51:21.836Z,99462.13
2022-09-10T03:53:50.670Z,99460.56
2022-09-10T03:56:21.068Z,99457.00
2022-09-10T03:58:50.263Z,99454.72
2022-09-10T04:01:19.446Z,99445.47
2022-09-10T04:03:48.740Z,99444.69
2022-09-10T04:06:18.051Z,99442.41
2022-09-10T04:08:49.777Z,99426.16
2022-09-10T04:11:18.241Z,99433.47
2022-09-10T04:13:50.170Z,99432.84
2022-09-10T04:16:19.261Z,99424.22
2022-09-10T04:18:47.796Z,99422.84
2022-09-10T04:21:16.793Z,99416.66
2022-09-10T04:23:46.818Z,99414.28
2022-09-10T04:26:18.643Z,99408.13
2022-09-10T04:28:47.467Z,99399.34
2022-09-10T04:31:16.094Z,99397.22
2022-09-10T04:33:45.110Z,99396.66
2022-09-10T04:36:16.465Z,99389.44
2022-09-10T04:38:45.164Z,99380.88
2022-09-10T04:41:16.567Z,99378.72
2022-09-10T04:43:45.128Z,99378.63
2022-09-10T04:46:14.147Z,99362.91
2022-09-10T04:48:42.724Z,99366.16
2022-09-10T04:51:16.576Z,99353.25
2022-09-10T04:53:47.201Z,99357.78
2022-09-10T04:56:16.068Z,99337.16
2022-09-10T04:58:45.105Z,99333.50
2022-09-10T05:01:14.501Z,99329.59
2022-09-10T05:03:43.035Z,99322.84
2022-09-10T05:06:11.591Z,99320.25
2022-09-10T05:08:40.334Z,99305.59
2022-09-10T05:11:08.983Z,99308.53
2022-09-10T05:13:37.421Z,99299.31
2022-09-10T05:16:06.216Z,99300.28
2022-09-10T05:18:34.879Z,99291.81
2022-09-10T05:21:03.556Z,99286.16
2022-09-10T05:23:32.386Z,99289.53
2022-09-10T05:26:00.970Z,99280.09
2022-09-10T05:28:29.464Z,99286.03
2022-09-10T05:30:58.040Z,99281.16
2022-09-10T05:33:26.727Z,99286.78
2022-09-10T05:35:55.324Z,99277.28
2022-09-10T05:38:26.007Z,99273.44
2022-09-10T05:40:55.103Z,99272.47
2022-09-10T05:43:23.610Z,99268.91
2022-09-10T05:45:53.279Z,99261.72
2022-09-10T05:48:22.493Z,99244.78
2022-09-10T05:50:51.936Z,99248.38
2022-09-10T05:53:20.451Z,99251.97
2022-09-10T05:55:49.765Z,99255.53
2022-09-10T05:58:18.245Z,99242.94
2022-09-10T06:00:46.720Z,99235.78
2022-09-10T06:03:15.211Z,99226.00
2022-09-10T06:05:51.444Z,99217.56
2022-09-10T06:08:24.119Z,99205.19
2022-09-10T06:11:01.395Z,99203.00
2022-09-10T06:13:29.989Z,99194.75
2022-09-10T06:15:58.815Z,99197.00
2022-09-10T06:18:27.501Z,99198.78
2022-09-10T06:21:13.050Z,99190.81
2022-09-10T06:23:41.596Z,99190.06
2022-09-10T06:26:18.188Z,99174.97
2022-09-10T06:28:46.843Z,99165.56
2022-09-10T06:31:18.339Z,99153.28
2022-09-10T06:33:52.392Z,99145.94
2022-09-10T06:36:20.947Z,99127.25
2022-09-10T06:38:50.616Z,99125.94
2022-09-10T06:41:19.588Z,99114.22
2022-09-10T06:43:48.191Z,99115.53
2022-09-10T06:46:56.727Z,99100.66
2022-09-10T06:49:07.815Z,99095.44
2022-09-10T06:51:36.331Z,99091.19
2022-09-10T06:54:05.128Z,99085.00
2022-09-10T06:56:33.594Z,99090.84
2022-09-10T06:59:03.005Z,99093.13
2022-09-10T07:01:31.875Z,99087.28
2022-09-10T07:04:02.309Z,99091.19
2022-09-10T07:06:35.977Z,99082.31
2022-09-10T07:09:05.980Z,99080.56
2022-09-10T07:11:36.930Z,99077.34
2022-09-10T07:14:13.703Z,99073.56
2022-09-10T07:16:46.589Z,99063.91
2022-09-10T07:19:16.095Z,99070.44
2022-09-10T07:21:44.795Z,99077.19
2022-09-10T07:24:13.724Z,99084.47
2022-09-10T07:26:42.293Z,99084.78
2022-09-10T07:29:11.668Z,99075.91
2022-09-10T07:31:41.453Z,99069.31
2022-09-10T07:34:09.959Z,99071.91
2022-09-10T07:36:38.406Z,99078.44
2022-09-10T07:39:06.912Z,99079.50
2022-09-10T07:41:36.184Z,99093.41
2022-09-10T07:44:04.986Z,99094.50
2022-09-10T07:46:33.639Z,99096.34
2022-09-10T07:49:02.806Z,99085.59
2022-09-10T07:51:33.540Z,99080.28
2022-09-10T07:54:02.094Z,99073.13
2022-09-10T07:56:32.921Z,99068.03
2022-09-10T07:59:03.816Z,99065.75
2022-09-10T08:01:32.830Z,99066.31
2022-09-10T08:04:01.494Z,99070.75
2022-09-10T08:06:30.036Z,99071.09
2022-09-10T08:08:58.520Z,99074.47
2022-09-10T08:11:27.401Z,99077.84
2022-09-10T08:13:57.871Z,99071.75
2022-09-10T08:16:28.054Z,99079.97
2022-09-10T08:19:01.690Z,99098.31
2022-09-10T08:21:32.944Z,99097.03
2022-09-10T08:24:01.522Z,99092.84
2022-09-10T08:26:30.406Z,99085.16
2022-09-10T08:28:59.263Z,99086.53
2022-09-10T08:31:27.914Z,99086.53
2022-09-10T08:33:57.913Z,99074.97
2022-09-10T08:36:27.249Z,99068.34
2022-09-10T08:39:00.289Z,99066.00
2022-09-10T08:41:39.473Z,99056.81
2022-09-10T08:44:11.017Z,99049.28
2022-09-10T08:46:46.562Z,99047.22
2022-09-10T08:49:27.330Z,99049.97
2022-09-10T08:52:03.172Z,99045.53
2022-09-10T08:54:42.683Z,99048.81
2022-09-10T08:57:26.536Z,99052.75
2022-09-10T08:59:58.057Z,99054.88
2022-09-10T09:02:49.675Z,99058.50
2022-09-10T09:05:24.106Z,99075.66
2022-09-10T09:07:53.640Z,99072.63
2022-09-10T09:10:54.591Z,99086.16
2022-09-10T09:13:28.725Z,99087.22
2022-09-10T09:16:22.345Z,99084.16
2022-09-10T09:19:10.923Z,99099.50
2022-09-10T09:21:55.412Z,99101.06
2022-09-10T09:24:25.796Z,99104.94
2022-09-10T09:27:02.918Z,99111.59
2022-09-10T09:29:41.199Z,99110.06
2022-09-10T09:32:15.552Z,99114.16
2022-09-10T09:35:18.810Z,99114.16
2022-09-10T09:37:51.254Z,99126.69
2022-09-10T09:40:35.134Z,99135.34
2022-09-10T09:43:18.397Z,99138.38
2022-09-10T09:45:48.731Z,99136.84
2022-09-10T09:48:21.510Z,99139.91
2022-09-10T09:50:57.108Z,99146.28
2022-09-10T09:53:29.048Z,99145.00
2022-09-10T09:56:02.726Z,99151.38
2022-09-10T09:58:34.727Z,99147.03
2022-09-10T10:01:06.124Z,99153.94
2022-09-10T10:03:40.052Z,99156.75
2022-09-10T10:06:13.746Z,99162.34
2022-09-10T10:08:47.310Z,99157.78
2022-09-10T10:11:19.656Z,99164.69
2022-09-10T10:13:54.124Z,99170.31
2022-09-10T10:16:23.733Z,99170.59
2022-09-10T10:18:52.868Z,99170.84
2022-09-10T10:21:29.911Z,99178.28
2022-09-10T10:23:58.386Z,99168.31
2022-09-10T10:26:37.368Z,99160.19
2022-09-10T10:29:08.682Z,99157.38
2022-09-10T10:31:49.549Z,99146.94
2022-09-10T10:34:39.207Z,99152.53
2022-09-10T10:38:02.968Z,99148.44
2022-09-10T10:40:35.709Z,99146.41
2022-09-10T10:43:25.935Z,99139.50
2022-09-10T10:46:08.812Z,99137.22
2022-09-10T10:49:04.613Z,99141.03
2022-09-10T10:51:53.914Z,99144.38
2022-09-10T10:54:29.674Z,99145.13
2022-09-10T10:57:22.679Z,99152.78
2022-09-10T11:00:08.714Z,99163.25
2022-09-10T11:02:50.745Z,99164.03
2022-09-10T11:05:39.794Z,99165.53
2022-09-10T11:08:17.472Z,99171.16
2022-09-10T11:10:52.036Z,99166.81
2022-09-10T11:13:23.401Z,99172.44
2022-09-10T11:16:08.194Z,99172.44
2022-09-10T11:19:02.433Z,99173.19
2022-09-10T11:21:50.357Z,99179.56
2022-09-10T11:24:54.789Z,99188.75
2022-09-10T11:27:35.253Z,99191.56
2022-09-10T11:30:11.129Z,99200.72
2022-09-10T11:32:52.178Z,99200.72
2022-09-10T11:35:30.920Z,99204.34
2022-09-10T11:38:08.889Z,99198.72
2022-09-10T11:40:54.470Z,99198.19
2022-09-10T11:43:50.991Z,99201.00
2022-09-10T11:46:55.758Z,99208.13
2022-09-10T11:49:43.032Z,99214.50
2022-09-10T11:52:13.120Z,99212.22
2022-09-10T11:54:43.319Z,99210.94
2022-09-10T11:57:32.581Z,99209.66
2022-09-10T12:00:17.269Z,99203.53
2022-09-10T12:03:05.705Z,99199.44
2022-09-10T12:05:52.231Z,99199.44
2022-09-10T12:08:47.976Z,99205.81
2022-09-10T12:11:44.358Z,99206.56
2022-09-10T12:14:20.659Z,99207.34
2022-09-10T12:16:53.236Z,99193.31
2022-09-10T12:19:30.373Z,99201.72
2022-09-10T12:22:29.716Z,99208.09
2022-09-10T12:25:07.897Z,99213.97
2022-09-10T12:27:57.002Z,99213.22
2022-09-10T12:30:37.599Z,99225.97
2022-09-10T12:33:15.101Z,99224.44
2022-09-10T12:35:51.329Z,99225.72
2022-09-10T12:38:56.865Z,99232.84
2022-09-10T12:41:25.349Z,99233.34
2022-09-10T12:43:59.663Z,99235.66
2022-09-10T12:46:29.481Z,99240.53
2022-09-10T12:48:58.844Z,99245.59
2022-09-10T12:51:47.388Z,99249.19
2022-09-10T12:54:34.437Z,99261.94
2022-09-10T12:57:28.852Z,99264.72
2022-09-10T13:00:23.186Z,99273.91
2022-09-10T13:03:02.075Z,99274.16
2022-09-10T13:05:55.235Z,99281.06
2022-09-10T13:08:29.121Z,99278.00
2022-09-10T13:11:00.812Z,99285.66
2022-09-10T13:13:38.086Z,99294.09
2022-09-10T13:16:11.134Z,99302.50
2022-09-10T13:18:40.157Z,99315.25
2022-09-10T13:21:27.242Z,99322.16
2022-09-10T13:23:57.468Z,99327.25
2022-09-10T13:26:41.147Z,99339.22
2022-09-10T13:29:29.726Z,99344.09
2022-09-10T13:32:28.611Z,99345.63
2022-09-10T13:35:06.840Z,99347.13
2022-09-10T13:38:05.788Z,99357.09
2022-09-10T13:41:07.536Z,99354.28
2022-09-10T13:44:13.013Z,99354.28
2022-09-10T13:46:51.118Z,99360.13
2022-09-10T13:49:39.731Z,99367.03
2022-09-10T13:52:13.734Z,99370.59
2022-09-10T13:54:51.523Z,99369.31
2022-09-10T13:57:43.250Z,99376.22
2022-09-10T14:00:24.829Z,99381.81
2022-09-10T14:03:03.040Z,99385.91
2022-09-10T14:05:51.226Z,99390.25
2022-09-10T14:08:27.100Z,99388.97
2022-09-10T14:11:13.639Z,99395.88
2022-09-10T14:13:52.869Z,99393.06
2022-09-10T14:16:30.205Z,99403.75
2022-09-10T14:19:03.763Z,99400.97
2022-09-10T14:21:32.868Z,99396.09
2022-09-10T14:24:01.732Z,99406.06
2022-09-10T14:26:34.779Z,99416.00
2022-09-10T14:29:24.032Z,99411.66
2022-09-10T14:31:52.789Z,99415.25
2022-09-10T14:34:37.269Z,99428.50
2022-09-10T14:37:33.281Z,99424.19
2022-09-10T14:40:23.072Z,99427.75
2022-09-10T14:42:52.224Z,99431.06
2022-09-10T14:45:47.286Z,99441.78
2022-09-10T14:48:38.698Z,99443.06
2022-09-10T14:51:13.946Z,99441.53
2022-09-10T14:53:44.063Z,99442.06
2022-09-10T14:56:31.854Z,99438.25
2022-09-10T14:59:16.078Z,99446.66
2022-09-10T15:01:46.810Z,99449.47
2022-09-10T15:04:18.578Z,99443.09
2022-09-10T15:06:47.176Z,99442.84
2022-09-10T15:09:16.412Z,99448.47
2022-09-10T15:12:04.537Z,99444.88
2022-09-10T15:14:34.456Z,99448.22
2022-09-10T15:17:02.957Z,99450.25
2022-09-10T15:19:31.555Z,99456.88
2022-09-10T15:22:00.798Z,99447.69
2022-09-10T15:24:29.765Z,99456.09
2022-09-10T15:26:58.253Z,99457.38
2022-09-10T15:29:27.209Z,99453.81
2022-09-10T15:32:00.492Z,99457.63
2022-09-10T15:34:29.619Z,99455.34
2022-09-10T15:36:58.243Z,99457.66
2022-09-10T15:39:26.740Z,99457.38
2022-09-10T15:41:55.267Z,99469.13
2022-09-10T15:44:26.541Z,99463.25
2022-09-10T15:46:54.967Z,99464.78
2022-09-10T15:49:23.483Z,99465.31
2022-09-10T15:51:52.361Z,99468.63
2022-09-10T15:54:21.939Z,99462.00
2022-09-10T15:56:50.430Z,99471.44
2022-09-10T15:59:19.082Z,99468.09
2022-09-10T16:01:47.778Z,99464.53
2022-09-10T16:04:16.534Z,99462.75
2022-09-10T16:06:45.122Z,99462.00
2022-09-10T16:09:15.177Z,99465.31
2022-09-10T16:11:45.488Z,99474.50
2022-09-10T16:14:17.790Z,99472.22
2022-09-10T16:16:46.845Z,99474.25
2022-09-10T16:19:15.398Z,99468.63
2022-09-10T16:21:46.858Z,99471.19
2022-09-10T16:24:15.414Z,99469.91
2022-09-10T16:26:49.084Z,99467.88
2022-09-10T16:29:23.059Z,99468.63
2022-09-10T16:31:51.624Z,99473.50
2022-09-10T16:34:23.180Z,99467.13
2022-09-10T16:36:52.454Z,99475.53
2022-09-10T16:39:21.639Z,99482.66
2022-09-10T16:41:51.795Z,99477.06
2022-09-10T16:44:20.693Z,99472.22
2022-09-10T16:46:49.827Z,99472.22
2022-09-10T16:49:20.004Z,99473.75
2022-09-10T16:51:50.242Z,99470.94
2022-09-10T16:54:22.397Z,99468.13
2022-09-10T16:56:51.480Z,99465.31
2022-09-10T16:59:26.822Z,99455.13
2022-09-10T17:01:55.969Z,99453.84
2022-09-10T17:04:29.771Z,99454.63
2022-09-10T17:06:59.149Z,99443.91
2022-09-10T17:09:27.949Z,99446.72
2022-09-10T17:11:56.584Z,99443.91
2022-09-10T17:14:25.603Z,99435.25
2022-09-10T17:16:54.310Z,99431.41
2022-09-10T17:19:27.115Z,99431.16
2022-09-10T17:21:57.925Z,99420.44
2022-09-10T17:24:28.143Z,99426.06
2022-09-10T17:26:56.890Z,99419.44
2022-09-10T17:29:27.149Z,99423.75
2022-09-10T17:31:56.571Z,99419.44
2022-09-10T17:34:29.075Z,99419.44
2022-09-10T17:36:57.543Z,99411.78
2022-09-10T17:39:29.348Z,99417.38
2022-09-10T17:41:58.242Z,99403.59
2022-09-10T17:44:27.949Z,99401.56
2022-09-10T17:46:56.534Z,99396.72
2022-09-10T17:49:25.548Z,99392.63
2022-09-10T17:51:54.514Z,99394.16
2022-09-10T17:54:24.449Z,99388.06
2022-09-10T17:56:52.966Z,99394.94
2022-09-10T17:59:23.011Z,99390.59
2022-09-10T18:01:52.119Z,99384.72
2022-09-10T18:04:22.591Z,99384.97
2022-09-10T18:06:52.542Z,99380.13
2022-09-10T18:09:21.593Z,99372.50
2022-09-10T18:11:50.222Z,99374.28
2022-09-10T18:14:21.700Z,99372.00
2022-09-10T18:16:50.469Z,99368.16
2022-09-10T18:19:20.009Z,99357.47
2022-09-10T18:21:50.064Z,99353.13
2022-09-10T18:24:23.403Z,99339.88
2022-09-10T18:26:54.843Z,99338.59
2022-09-10T18:29:27.184Z,99337.06
2022-09-10T18:31:58.888Z,99328.66
2022-09-10T18:34:30.161Z,99331.47
2022-09-10T18:37:01.700Z,99322.00
2022-09-10T18:39:33.040Z,99316.91
2022-09-10T18:42:02.097Z,99319.47
2022-09-10T18:44:37.548Z,99327.91
2022-09-10T18:47:27.879Z,99323.56
2022-09-10T18:50:00.224Z,99312.34
2022-09-10T18:52:29.205Z,99313.63
2022-09-10T18:54:57.810Z,99314.91
2022-09-10T18:57:26.395Z,99306.47
2022-09-10T18:59:56.150Z,99307.25
2022-09-10T19:02:24.964Z,99296.78
2022-09-10T19:05:11.687Z,99300.34
2022-09-10T19:07:40.886Z,99300.88
2022-09-10T19:10:10.115Z,99303.16
2022-09-10T19:12:38.658Z,99303.94
2022-09-10T19:15:07.576Z,99293.47
2022-09-10T19:17:36.133Z,99296.28
2022-09-10T19:20:04.918Z,99292.19
2022-09-10T19:22:34.894Z,99285.06
2022-09-10T19:25:04.499Z,99285.56
2022-09-10T19:27:35.295Z,99280.47
2022-09-10T19:30:03.809Z,99261.38
2022-09-10T19:32:32.848Z,99268.25
2022-09-10T19:35:01.382Z,99264.16
2022-09-10T19:37:29.787Z,99268.25
2022-09-10T19:39:58.548Z,99266.72
2022-09-10T19:42:27.051Z,99267.25
2022-09-10T19:44:55.635Z,99273.09
2022-09-10T19:47:24.095Z,99263.94
2022-09-10T19:49:52.599Z,99269.78
2022-09-10T19:52:22.404Z,99263.16
2022-09-10T19:54:50.930Z,99267.50
2022-09-10T19:57:19.406Z,99263.16
2022-09-10T19:59:47.988Z,99263.94
2022-09-10T20:02:16.942Z,99262.66
2022-09-10T20:04:46.092Z,99265.69
2022-09-10T20:07:14.609Z,99262.38
2022-09-10T20:09:43.303Z,99261.59
2022-09-10T20:12:11.861Z,99258.56
2022-09-10T20:14:40.427Z,99260.84
2022-09-10T20:17:08.992Z,99256.53
2022-09-10T20:19:38.167Z,99262.88
2022-09-10T20:22:06.655Z,99267.75
2022-09-10T20:24:35.259Z,99271.31
2022-09-10T20:27:03.856Z,99269.00
2022-09-10T20:29:33.969Z,99264.69
2022-09-10T20:32:02.579Z,99261.63
2022-09-10T20:34:32.372Z,99267.00
2022-09-10T20:37:00.969Z,99264.19
2022-09-10T20:39:29.530Z,99264.44
2022-09-10T20:41:58.839Z,99265.97
2022-09-10T20:44:27.458Z,99271.06
2022-09-10T20:46:56.392Z,99266.47
2022-09-10T20:49:24.958Z,99264.41
2022-09-10T20:51:53.674Z,99267.47
2022-09-10T20:54:22.119Z,99265.41
2022-09-10T20:56:50.834Z,99268.22
2022-09-10T20:59:23.222Z,99273.31
2022-09-10T21:01:54.222Z,99269.22
2022-09-10T21:04:23.128Z,99270.75
2022-09-10T21:06:51.634Z,99268.19
2022-09-10T21:09:20.172Z,99274.81
2022-09-10T21:11:48.780Z,99279.13
2022-09-10T21:14:18.286Z,99281.94
2022-09-10T21:16:48.269Z,99279.94
2022-09-10T21:19:18.424Z,99273.03
2022-09-10T21:21:49.905Z,99271.75
2022-09-10T21:24:23.623Z,99267.66
2022-09-10T21:26:52.198Z,99271.75
2022-09-10T21:29:22.335Z,99273.81
2022-09-10T21:31:51.700Z,99263.34
2022-09-10T21:34:20.415Z,99256.44
2022-09-10T21:36:48.961Z,99261.28
2022-09-10T21:39:18.873Z,99264.34
2022-09-10T21:41:52.099Z,99273.28
2022-09-10T21:44:26.033Z,99268.44
2022-09-10T21:46:55.010Z,99264.88
2022-09-10T21:49:23.612Z,99267.66
2022-09-10T21:51:52.361Z,99266.91
2022-09-10T21:54:23.075Z,99268.44
2022-09-10T21:56:53.132Z,99268.94
2022-09-10T21:59:22.466Z,99269.72
2022-09-10T22:01:52.335Z,99270.47
2022-09-10T22:04:23.088Z,99268.94
2022-09-10T22:06:52.973Z,99278.38
2022-09-10T22:09:22.328Z,99274.81
2022-09-10T22:11:52.996Z,99272.75
2022-09-10T22:14:24.148Z,99274.81
2022-09-10T22:16:53.657Z,99266.41
2022-09-10T22:19:26.898Z,99271.25
2022-09-10T22:21:57.112Z,99270.47
2022-09-10T22:24:27.007Z,99269.72
2022-09-10T22:26:55.710Z,99282.97
2022-09-10T22:29:24.289Z,99300.56
2022-09-10T22:31:52.777Z,99298.28
2022-09-10T22:34:21.871Z,99303.13
2022-09-10T22:36:50.748Z,99303.13
2022-09-10T22:39:22.060Z,99312.31
2022-09-10T22:41:52.315Z,99309.25
2022-09-10T22:44:21.212Z,99302.13
2022-09-10T22:46:49.870Z,99302.13
2022-09-10T22:49:18.864Z,99295.00
2022-09-10T22:51:47.407Z,99306.72
2022-09-10T22:54:17.638Z,99301.41
2022-09-10T22:56:46.154Z,99293.78
2022-09-10T22:59:16.337Z,99294.09
2022-09-10T23:01:49.053Z,99297.66
2022-09-10T23:04:17.867Z,99301.00
2022-09-10T23:06:46.534Z,99307.66
2022-09-10T23:09:17.128Z,99315.28
2022-09-10T23:11:46.390Z,99318.34
2022-09-10T23:14:20.404Z,99321.41
2022-09-10T23:16:51.204Z,99318.09
2022-09-10T23:19:22.813Z,99319.13
2022-09-10T23:21:54.108Z,99318.09
2022-09-10T23:24:27.692Z,99322.69
2022-09-10T23:26:56.428Z,99327.28
2022-09-10T23:29:25.216Z,99343.81
2022-09-10T23:31:56.470Z,99346.63
2022-09-10T23:34:25.114Z,99345.84
2022-09-10T23:36:54.003Z,99345.84
2022-09-10T23:39:25.111Z,99350.94
2022-09-10T23:41:56.523Z,99350.44
2022-09-10T23:44:25.418Z,99351.97
2022-09-10T23:46:54.616Z,99353.75
2022-09-10T23:49:25.057Z,99368.00
2022-09-10T23:51:53.975Z,99366.22
2022-09-10T23:54:22.471Z,99375.66
2022-09-10T23:56:50.977Z,99379.47
2022-09-10T23:59:20.541Z,99379.72
